Time;durP1;ratioP1;P1;durP2;ratioP2;P2;SDS_P1;SDS_P2;PMS_P1;PMS_P2;Temp;Humidity;BMP_temperature;BMP_pressure;BME280_temperature;BME280_humidity;BME280_pressure;Samples;Min_cycle;Max_cycle;Signal;HPM_P1;HPM_P2
2024/02/04 00:00:02;;;;;;;;;6.25;4.75;;;;;;;;5071542;28;9638;-80
2024/02/04 00:02:29;;;;;;;;;5.00;5.00;;;;;;;;5072254;28;9586;-79
2024/02/04 00:04:57;;;;;;;;;7.25;4.50;;;;;;;;5071833;28;9709;-79
2024/02/04 00:07:24;;;;;;;;;4.00;4.00;;;;;;;;5065796;28;9460;-81
2024/02/04 00:09:51;;;;;;;;;6.75;4.25;;;;;;;;5063899;28;9499;-81
2024/02/04 00:12:20;;;;;;;;;3.00;3.00;;;;;;;;5059579;28;9520;-80
2024/02/04 00:14:49;;;;;;;;;5.50;5.00;;;;;;;;5069016;28;10371;-79
2024/02/04 00:17:16;;;;;;;;;4.50;4.50;;;;;;;;5071500;28;9622;-78
2024/02/04 00:19:44;;;;;;;;;3.00;3.00;;;;;;;;5070648;28;9548;-79
2024/02/04 00:22:11;;;;;;;;;3.50;3.50;;;;;;;;5071122;28;10383;-79
2024/02/04 00:24:38;;;;;;;;;4.00;4.00;;;;;;;;5070235;28;9582;-79
2024/02/04 00:27:06;;;;;;;;;5.00;5.00;;;;;;;;5072357;28;10380;-79
2024/02/04 00:29:35;;;;;;;;;3.50;3.50;;;;;;;;5070632;28;9749;-79
2024/02/04 00:32:02;;;;;;;;;2.75;2.75;;;;;;;;5072188;28;9587;-80
2024/02/04 00:34:29;;;;;;;;;4.00;4.00;;;;;;;;5068727;28;9691;-79
2024/02/04 00:36:56;;;;;;;;;4.00;4.00;;;;;;;;5070644;28;10389;-80
2024/02/04 00:39:24;;;;;;;;;2.00;2.00;;;;;;;;5070468;28;9631;-80
2024/02/04 00:41:51;;;;;;;;;4.00;4.00;;;;;;;;5070546;28;9680;-81
2024/02/04 00:44:18;;;;;;;;;4.50;3.50;;;;;;;;5071112;28;10395;-80
2024/02/04 00:46:47;;;;;;;;;2.75;2.75;;;;;;;;5070493;28;9555;-80
2024/02/04 00:49:14;;;;;;;;;4.00;2.75;;;;;;;;5069654;28;9479;-79
2024/02/04 00:51:41;;;;;;;;;3.75;3.75;;;;;;;;5069392;28;10363;-80
2024/02/04 00:54:08;;;;;;;;;3.00;3.00;;;;;;;;5068631;28;9497;-80
2024/02/04 00:56:37;;;;;;;;;3.00;3.00;;;;;;;;5069309;28;9534;-80
2024/02/04 00:59:05;;;;;;;;;3.50;3.50;;;;;;;;5070564;28;9481;-80
2024/02/04 01:01:32;;;;;;;;;3.67;3.67;;;;;;;;5069425;28;9558;-80
2024/02/04 01:04:00;;;;;;;;;3.00;3.00;;;;;;;;5070056;28;9420;-79
2024/02/04 01:06:29;;;;;;;;;3.00;3.00;;;;;;;;5068809;28;9425;-80
2024/02/04 01:08:57;;;;;;;;;6.00;4.00;;;;;;;;5070241;28;10227;-81
2024/02/04 01:11:24;;;;;;;;;4.00;4.00;;;;;;;;5068497;28;9464;-80
2024/02/04 01:13:52;;;;;;;;;2.50;2.50;;;;;;;;5070517;28;9506;-81
2024/02/04 01:16:19;;;;;;;;;4.00;4.00;;;;;;;;5070837;28;9474;-83
2024/02/04 01:18:46;;;;;;;;;4.25;4.25;;;;;;;;5070163;28;9556;-80
2024/02/04 01:21:15;;;;;;;;;4.75;3.00;;;;;;;;5068074;28;9476;-80
2024/02/04 01:23:42;;;;;;;;;6.00;5.00;;;;;;;;5070180;28;9622;-80
2024/02/04 01:26:09;;;;;;;;;4.00;3.50;;;;;;;;5070088;28;9469;-80
2024/02/04 01:28:37;;;;;;;;;5.50;4.00;;;;;;;;5070688;28;9548;-79
2024/02/04 01:31:04;;;;;;;;;4.75;4.75;;;;;;;;5067562;28;9583;-79
2024/02/04 01:33:32;;;;;;;;;6.75;5.00;;;;;;;;5069107;28;9488;-79
2024/02/04 01:36:02;;;;;;;;;4.00;4.00;;;;;;;;5068328;28;9613;-80
2024/02/04 01:38:30;;;;;;;;;3.75;3.75;;;;;;;;5070466;28;9491;-79
2024/02/04 01:40:57;;;;;;;;;3.00;3.00;;;;;;;;5066298;28;9457;-80
2024/02/04 01:43:29;;;;;;;;;3.50;3.50;;;;;;;;5064408;28;9404;-79
2024/02/04 01:45:56;;;;;;;;;4.75;4.75;;;;;;;;5069404;28;9468;-79
2024/02/04 01:48:24;;;;;;;;;3.50;3.50;;;;;;;;5069652;28;9534;-80
2024/02/04 01:50:52;;;;;;;;;4.00;4.00;;;;;;;;5069363;28;9508;-80
2024/02/04 01:53:21;;;;;;;;;4.25;2.00;;;;;;;;5069196;28;9579;-79
2024/02/04 01:55:50;;;;;;;;;4.00;4.00;;;;;;;;5066781;28;9561;-79
2024/02/04 01:58:18;;;;;;;;;4.25;4.25;;;;;;;;5063853;28;9446;-79
2024/02/04 02:00:46;;;;;;;;;2.25;2.25;;;;;;;;5065193;28;9408;-79
2024/02/04 02:03:13;;;;;;;;;3.00;3.00;;;;;;;;5068698;28;9547;-78
2024/02/04 02:05:41;;;;;;;;;2.25;2.25;;;;;;;;5060745;28;9469;-79
2024/02/04 02:08:09;;;;;;;;;2.75;2.75;;;;;;;;5065178;28;9618;-79
2024/02/04 02:10:36;;;;;;;;;3.75;3.75;;;;;;;;5069027;28;9489;-79
2024/02/04 02:13:11;;;;;;;;;4.00;4.00;;;;;;;;5066855;28;10196;-79
2024/02/04 02:15:44;;;;;;;;;2.00;2.00;;;;;;;;5065455;28;9565;-79
2024/02/04 02:18:16;;;;;;;;;3.00;3.00;;;;;;;;5086123;28;9618;-79
2024/02/04 02:20:53;;;;;;;;;3.00;3.00;;;;;;;;5072586;28;9658;-80
2024/02/04 02:23:23;;;;;;;;;3.00;3.00;;;;;;;;5067039;28;9593;-79
2024/02/04 02:25:53;;;;;;;;;0.00;0.00;;;;;;;;5064840;28;10212;-79
2024/02/04 02:28:20;;;;;;;;;3.50;3.00;;;;;;;;5060809;28;9618;-79
2024/02/04 02:30:48;;;;;;;;;2.25;2.25;;;;;;;;5054982;28;9330;-79
2024/02/04 02:33:15;;;;;;;;;4.25;4.00;;;;;;;;5058493;28;9686;-79
2024/02/04 02:35:43;;;;;;;;;3.75;3.75;;;;;;;;5060699;28;9521;-79
2024/02/04 02:38:15;;;;;;;;;3.50;3.50;;;;;;;;5065252;28;9507;-79
2024/02/04 02:40:47;;;;;;;;;3.75;3.75;;;;;;;;5054472;28;9386;-79
2024/02/04 02:43:17;;;;;;;;;2.00;2.00;;;;;;;;5062491;28;9441;-81
2024/02/04 02:45:45;;;;;;;;;5.00;3.00;;;;;;;;5069626;28;9454;-80
2024/02/04 02:48:12;;;;;;;;;3.00;3.00;;;;;;;;5062475;28;9704;-80
2024/02/04 02:50:40;;;;;;;;;2.00;2.00;;;;;;;;5057964;28;9641;-79
2024/02/04 02:53:07;;;;;;;;;3.25;3.25;;;;;;;;5062311;28;9394;-79
2024/02/04 02:55:34;;;;;;;;;1.50;1.00;;;;;;;;5060980;28;9673;-80
2024/02/04 02:58:01;;;;;;;;;5.75;2.75;;;;;;;;5068367;28;9495;-79
2024/02/04 03:00:30;;;;;;;;;1.00;1.00;;;;;;;;5065405;28;9386;-79
2024/02/04 03:02:59;;;;;;;;;4.00;3.00;;;;;;;;5068118;28;10226;-78
2024/02/04 03:05:26;;;;;;;;;2.00;2.00;;;;;;;;5063309;28;9447;-79
2024/02/04 03:07:53;;;;;;;;;4.00;3.75;;;;;;;;5068451;28;9456;-78
2024/02/04 03:10:20;;;;;;;;;3.50;2.00;;;;;;;;5057329;28;9760;-79
2024/02/04 03:12:48;;;;;;;;;3.00;3.00;;;;;;;;5051039;28;9667;-79
2024/02/04 03:15:15;;;;;;;;;2.00;2.00;;;;;;;;5054710;28;9712;-79
2024/02/04 03:17:45;;;;;;;;;2.75;2.75;;;;;;;;5066550;28;9554;-79
2024/02/04 03:20:13;;;;;;;;;3.00;3.00;;;;;;;;5055214;28;9580;-79
2024/02/04 03:22:40;;;;;;;;;3.25;3.25;;;;;;;;5069023;28;9666;-78
2024/02/04 03:25:08;;;;;;;;;3.00;3.00;;;;;;;;5067193;28;9528;-78
2024/02/04 03:27:35;;;;;;;;;5.50;4.00;;;;;;;;5067722;28;9529;-78
2024/02/04 03:30:02;;;;;;;;;3.00;3.00;;;;;;;;5069111;28;9686;-78
2024/02/04 03:32:33;;;;;;;;;3.00;3.00;;;;;;;;5072206;28;9720;-79
2024/02/04 03:35:02;;;;;;;;;5.00;3.00;;;;;;;;5071703;28;10320;-79
2024/02/04 03:37:29;;;;;;;;;2.50;2.50;;;;;;;;5072279;28;10326;-79
2024/02/04 03:39:57;;;;;;;;;4.50;3.75;;;;;;;;5070090;28;10636;-79
2024/02/04 03:42:24;;;;;;;;;3.50;3.50;;;;;;;;5070786;28;9473;-79
2024/02/04 03:44:54;;;;;;;;;5.25;4.50;;;;;;;;5065676;28;9644;-79
2024/02/04 03:47:21;;;;;;;;;4.00;4.00;;;;;;;;5068015;28;9679;-79
2024/02/04 03:49:48;;;;;;;;;5.00;5.00;;;;;;;;5068267;28;9702;-79
2024/02/04 03:52:17;;;;;;;;;5.75;4.00;;;;;;;;5070554;28;9732;-79
2024/02/04 03:54:44;;;;;;;;;5.50;3.75;;;;;;;;5063998;28;9870;-79
2024/02/04 03:57:11;;;;;;;;;2.75;2.75;;;;;;;;5066535;28;9830;-80
2024/02/04 03:59:38;;;;;;;;;3.25;3.25;;;;;;;;5069834;28;9741;-80
2024/02/04 04:02:06;;;;;;;;;5.00;3.25;;;;;;;;5071197;28;10290;-79
2024/02/04 04:04:33;;;;;;;;;3.50;2.50;;;;;;;;5066023;28;9679;-79
2024/02/04 04:07:00;;;;;;;;;3.50;3.50;;;;;;;;5071458;28;9625;-79
2024/02/04 04:09:29;;;;;;;;;5.25;3.75;;;;;;;;5065810;28;10488;-78
2024/02/04 04:11:56;;;;;;;;;2.75;2.75;;;;;;;;5070127;28;9715;-79
2024/02/04 04:14:23;;;;;;;;;5.50;3.50;;;;;;;;5071123;28;9652;-79
2024/02/04 04:16:51;;;;;;;;;4.00;4.00;;;;;;;;5056919;28;9702;-80
2024/02/04 04:19:18;;;;;;;;;3.50;3.50;;;;;;;;5069393;28;9689;-79
2024/02/04 04:21:45;;;;;;;;;3.00;3.00;;;;;;;;5070470;28;9862;-80
2024/02/04 04:24:15;;;;;;;;;3.75;2.50;;;;;;;;5071283;28;10577;-79
2024/02/04 04:26:44;;;;;;;;;3.25;3.25;;;;;;;;5068680;28;9993;-80
2024/02/04 04:29:14;;;;;;;;;4.00;4.00;;;;;;;;5069974;28;9694;-80
2024/02/04 04:31:41;;;;;;;;;4.50;4.50;;;;;;;;5070147;28;9821;-79
2024/02/04 04:34:09;;;;;;;;;4.00;4.00;;;;;;;;5070811;28;9990;-79
2024/02/04 04:36:36;;;;;;;;;7.00;5.25;;;;;;;;5059207;28;9692;-80
2024/02/04 04:39:03;;;;;;;;;4.75;3.75;;;;;;;;5070434;28;9837;-79
2024/02/04 04:41:31;;;;;;;;;2.00;2.00;;;;;;;;5067505;28;9891;-80
2024/02/04 04:43:58;;;;;;;;;3.00;3.00;;;;;;;;5070187;28;9794;-79
2024/02/04 04:46:25;;;;;;;;;4.00;2.75;;;;;;;;5060648;28;9889;-79
2024/02/04 04:48:53;;;;;;;;;4.00;4.00;;;;;;;;5071600;28;9552;-79
2024/02/04 04:51:21;;;;;;;;;4.00;4.00;;;;;;;;5087079;28;9773;-76
2024/02/04 04:53:48;;;;;;;;;3.00;3.00;;;;;;;;5083669;28;9614;-79
2024/02/04 04:56:15;;;;;;;;;2.75;2.75;;;;;;;;5070321;28;9689;-79
2024/02/04 04:58:43;;;;;;;;;3.00;3.00;;;;;;;;5070871;28;9723;-79
2024/02/04 05:01:11;;;;;;;;;4.25;4.25;;;;;;;;5070120;28;9739;-79
2024/02/04 05:03:38;;;;;;;;;4.00;4.00;;;;;;;;5068287;28;9626;-79
2024/02/04 05:06:06;;;;;;;;;2.75;2.75;;;;;;;;5071496;28;9633;-80
2024/02/04 05:08:33;;;;;;;;;3.75;3.75;;;;;;;;5070598;28;9788;-80
2024/02/04 05:11:00;;;;;;;;;3.75;3.00;;;;;;;;5069991;28;9848;-80
2024/02/04 05:13:28;;;;;;;;;6.00;6.00;;;;;;;;5070864;28;9705;-78
2024/02/04 05:15:55;;;;;;;;;5.00;5.00;;;;;;;;5071350;28;9726;-79
2024/02/04 05:18:26;;;;;;;;;4.00;4.00;;;;;;;;5071711;28;9789;-79
2024/02/04 05:20:53;;;;;;;;;4.50;3.00;;;;;;;;5061347;28;9639;-79
2024/02/04 05:23:24;;;;;;;;;5.50;4.50;;;;;;;;5065245;28;9616;-79
2024/02/04 05:25:51;;;;;;;;;4.50;4.50;;;;;;;;5064590;28;10556;-80
2024/02/04 05:28:19;;;;;;;;;4.75;3.75;;;;;;;;5059690;28;9887;-80
2024/02/04 05:30:46;;;;;;;;;9.00;5.50;;;;;;;;5052311;28;9471;-79
2024/02/04 05:33:15;;;;;;;;;5.00;5.00;;;;;;;;5058660;28;9608;-79
2024/02/04 05:35:44;;;;;;;;;5.50;5.00;;;;;;;;5051832;28;9793;-80
2024/02/04 05:38:14;;;;;;;;;5.00;5.00;;;;;;;;5053093;28;9939;-80
2024/02/04 05:40:44;;;;;;;;;6.50;6.50;;;;;;;;5058892;28;9829;-80
2024/02/04 05:43:11;;;;;;;;;5.75;5.50;;;;;;;;5063270;28;9761;-80
2024/02/04 05:45:40;;;;;;;;;10.00;8.00;;;;;;;;5057028;28;9870;-80
2024/02/04 05:48:08;;;;;;;;;4.75;4.25;;;;;;;;5068725;28;9913;-79
2024/02/04 05:50:35;;;;;;;;;6.75;5.75;;;;;;;;5069323;28;9644;-79
2024/02/04 05:53:04;;;;;;;;;6.00;6.00;;;;;;;;5069843;28;9727;-80
2024/02/04 05:55:32;;;;;;;;;5.00;5.00;;;;;;;;5066750;28;9852;-79
2024/02/04 05:58:02;;;;;;;;;5.25;5.25;;;;;;;;5066726;28;9707;-79
2024/02/04 06:00:32;;;;;;;;;5.25;5.25;;;;;;;;5068569;28;10286;-79
2024/02/04 06:02:59;;;;;;;;;7.00;7.00;;;;;;;;5068368;28;9613;-79
2024/02/04 06:05:26;;;;;;;;;6.00;6.00;;;;;;;;5068175;28;9630;-79
2024/02/04 06:07:54;;;;;;;;;7.50;6.00;;;;;;;;5068510;28;9845;-79
2024/02/04 06:10:22;;;;;;;;;9.00;7.50;;;;;;;;5068222;28;9796;-79
2024/02/04 06:12:50;;;;;;;;;7.75;7.75;;;;;;;;5068181;28;9618;-79
2024/02/04 06:15:20;;;;;;;;;10.25;7.75;;;;;;;;5068364;28;9761;-80
2024/02/04 06:17:47;;;;;;;;;7.25;7.25;;;;;;;;5067638;28;9748;-79
2024/02/04 06:20:15;;;;;;;;;6.00;6.00;;;;;;;;5054954;28;9703;-80
2024/02/04 06:22:42;;;;;;;;;4.00;4.00;;;;;;;;5067101;28;9823;-80
2024/02/04 06:25:09;;;;;;;;;5.50;4.75;;;;;;;;5068607;28;9534;-79
2024/02/04 06:27:37;;;;;;;;;4.50;4.50;;;;;;;;5067425;28;9730;-80
2024/02/04 06:30:05;;;;;;;;;6.00;6.00;;;;;;;;5066909;28;10497;-80
2024/02/04 06:32:32;;;;;;;;;5.50;4.25;;;;;;;;5067161;28;9706;-80
2024/02/04 06:35:00;;;;;;;;;6.25;6.25;;;;;;;;5067123;28;9816;-80
2024/02/04 06:37:27;;;;;;;;;8.75;6.00;;;;;;;;5065783;28;9729;-79
2024/02/04 06:39:54;;;;;;;;;4.00;4.00;;;;;;;;5065474;28;9852;-80
2024/02/04 06:42:21;;;;;;;;;5.50;4.00;;;;;;;;5068363;28;9616;-80
2024/02/04 06:44:50;;;;;;;;;5.00;5.00;;;;;;;;5067485;28;9536;-80
2024/02/04 06:47:17;;;;;;;;;6.00;4.00;;;;;;;;5064481;28;9650;-80
2024/02/04 06:49:46;;;;;;;;;5.00;5.00;;;;;;;;5068446;28;10315;-80
2024/02/04 06:52:13;;;;;;;;;6.00;4.50;;;;;;;;5068560;28;9584;-80
2024/02/04 06:54:40;;;;;;;;;5.25;5.00;;;;;;;;5068730;28;9602;-80
2024/02/04 06:57:07;;;;;;;;;6.00;5.00;;;;;;;;5067732;28;9705;-80
2024/02/04 06:59:35;;;;;;;;;4.25;4.25;;;;;;;;5069148;28;9809;-79
2024/02/04 07:02:04;;;;;;;;;5.50;5.25;;;;;;;;5067704;28;9653;-79
2024/02/04 07:04:33;;;;;;;;;5.25;5.25;;;;;;;;5068668;28;9823;-79
2024/02/04 07:07:00;;;;;;;;;7.25;4.25;;;;;;;;5068246;28;9752;-80
2024/02/04 07:09:29;;;;;;;;;4.75;4.75;;;;;;;;5067090;28;9808;-79
2024/02/04 07:11:56;;;;;;;;;7.00;5.00;;;;;;;;5068631;28;9937;-80
2024/02/04 07:14:23;;;;;;;;;7.00;4.50;;;;;;;;5068373;28;9682;-80
2024/02/04 07:16:51;;;;;;;;;3.25;3.25;;;;;;;;5069086;28;9775;-80
2024/02/04 07:19:20;;;;;;;;;5.00;5.00;;;;;;;;5068603;28;9741;-78
2024/02/04 07:21:48;;;;;;;;;4.50;4.00;;;;;;;;5069038;28;9616;-79
2024/02/04 07:24:15;;;;;;;;;6.25;6.25;;;;;;;;5067775;28;9793;-79
2024/02/04 07:26:45;;;;;;;;;5.50;4.00;;;;;;;;5067612;28;9767;-78
2024/02/04 07:29:16;;;;;;;;;4.00;4.00;;;;;;;;5063731;28;9799;-78
2024/02/04 07:31:44;;;;;;;;;5.00;5.00;;;;;;;;5067438;28;9991;-80
2024/02/04 07:34:11;;;;;;;;;9.25;9.25;;;;;;;;5067699;28;9763;-79
2024/02/04 07:36:40;;;;;;;;;5.75;5.00;;;;;;;;5067755;28;10053;-79
2024/02/04 07:39:08;;;;;;;;;7.00;4.75;;;;;;;;5066605;28;9999;-79
2024/02/04 07:41:38;;;;;;;;;4.75;4.75;;;;;;;;5067915;28;9697;-80
2024/02/04 07:44:05;;;;;;;;;4.75;4.75;;;;;;;;5067976;28;9790;-76
2024/02/04 07:46:33;;;;;;;;;8.75;6.50;;;;;;;;5067609;28;9780;-75
2024/02/04 07:49:00;;;;;;;;;5.75;5.75;;;;;;;;5067182;28;9831;-76
2024/02/04 07:51:29;;;;;;;;;10.00;7.25;;;;;;;;5067890;28;9787;-80
2024/02/04 07:53:58;;;;;;;;;4.25;4.25;;;;;;;;5066771;28;10711;-77
2024/02/04 07:56:25;;;;;;;;;5.50;5.50;;;;;;;;5066997;28;9914;-76
2024/02/04 07:58:53;;;;;;;;;5.00;5.00;;;;;;;;5066722;28;9885;-76
2024/02/04 08:01:20;;;;;;;;;3.75;3.75;;;;;;;;5046223;28;9811;-78
2024/02/04 08:03:49;;;;;;;;;4.00;4.00;;;;;;;;5061624;28;9844;-77
2024/02/04 08:06:16;;;;;;;;;3.50;3.50;;;;;;;;5060319;28;9722;-77
2024/02/04 08:08:44;;;;;;;;;2.25;2.25;;;;;;;;5066979;28;9802;-76
2024/02/04 08:11:19;;;;;;;;;3.25;1.75;;;;;;;;5066910;28;9683;-76
2024/02/04 08:13:47;;;;;;;;;3.75;2.00;;;;;;;;5056308;28;9716;-75
2024/02/04 08:16:14;;;;;;;;;2.25;2.25;;;;;;;;5069199;28;9472;-73
2024/02/04 08:21:32;;;;;;;;;1.00;1.00;;;;;;;;5058742;28;9538;-77
2024/02/04 08:23:59;;;;;;;;;1.00;1.00;;;;;;;;5070030;28;9650;-77
2024/02/04 08:26:28;;;;;;;;;2.00;2.00;;;;;;;;5071329;28;9542;-73
2024/02/04 08:28:58;;;;;;;;;1.50;1.00;;;;;;;;5068792;28;9608;-75
2024/02/04 08:31:25;;;;;;;;;1.75;1.50;;;;;;;;5069115;28;10327;-76
2024/02/04 08:33:52;;;;;;;;;3.25;1.50;;;;;;;;5070080;28;9757;-75
2024/02/04 08:36:24;;;;;;;;;1.00;1.00;;;;;;;;5070007;28;9632;-79
2024/02/04 08:38:51;;;;;;;;;2.50;2.50;;;;;;;;5070345;28;9630;-75
2024/02/04 08:41:18;;;;;;;;;3.00;3.00;;;;;;;;5067524;28;9541;-77
2024/02/04 08:43:47;;;;;;;;;1.00;1.00;;;;;;;;5070413;28;9731;-74
2024/02/04 08:46:17;;;;;;;;;1.00;1.00;;;;;;;;5070447;28;9602;-76
2024/02/04 08:48:46;;;;;;;;;1.00;1.00;;;;;;;;5071361;28;9456;-77
2024/02/04 08:51:20;;;;;;;;;1.00;1.00;;;;;;;;5060685;28;9540;-77
2024/02/04 08:53:47;;;;;;;;;1.00;1.00;;;;;;;;5071165;28;9468;-76
2024/02/04 08:56:16;;;;;;;;;1.00;1.00;;;;;;;;5071273;28;9500;-73
2024/02/04 08:58:45;;;;;;;;;1.00;1.00;;;;;;;;5068328;28;9390;-75
2024/02/04 09:01:24;;;;;;;;;0.67;0.67;;;;;;;;5068085;28;9373;-75
2024/02/04 09:03:54;;;;;;;;;1.00;1.00;;;;;;;;5065095;28;9489;-77
2024/02/04 09:06:23;;;;;;;;;0.75;0.75;;;;;;;;5069829;28;9403;-74
2024/02/04 09:08:53;;;;;;;;;1.33;1.33;;;;;;;;5058829;28;9457;-77
2024/02/04 09:11:20;;;;;;;;;0.67;0.67;;;;;;;;5066231;28;10189;-78
2024/02/04 09:13:52;;;;;;;;;1.00;1.00;;;;;;;;5069735;28;9447;-77
2024/02/04 09:16:19;;;;;;;;;1.00;1.00;;;;;;;;5069518;28;9406;-75
2024/02/04 09:18:47;;;;;;;;;1.00;0.75;;;;;;;;5062327;28;9574;-74
2024/02/04 09:21:17;;;;;;;;;1.00;1.00;;;;;;;;5064580;28;10261;-76
2024/02/04 09:23:47;;;;;;;;;1.00;1.00;;;;;;;;5070134;28;9544;-76
2024/02/04 09:26:14;;;;;;;;;1.00;1.00;;;;;;;;5069404;28;9498;-77
2024/02/04 09:28:45;;;;;;;;;1.00;1.00;;;;;;;;5069496;28;9333;-77
2024/02/04 09:31:14;;;;;;;;;1.00;1.00;;;;;;;;5068808;28;9404;-75
2024/02/04 09:33:41;;;;;;;;;1.00;1.00;;;;;;;;5070086;28;9626;-74
2024/02/04 09:36:09;;;;;;;;;2.75;2.75;;;;;;;;5066812;28;10288;-75
2024/02/04 09:38:36;;;;;;;;;2.00;2.00;;;;;;;;5068980;28;9717;-76
2024/02/04 09:41:04;;;;;;;;;1.00;1.00;;;;;;;;5068816;28;9610;-78
2024/02/04 09:43:32;;;;;;;;;2.00;2.00;;;;;;;;5069483;28;9382;-74
2024/02/04 09:46:02;;;;;;;;;1.75;1.75;;;;;;;;5069522;28;9654;-74
2024/02/04 09:48:35;;;;;;;;;0.67;0.67;;;;;;;;5058692;28;9591;-75
2024/02/04 09:51:04;;;;;;;;;1.00;1.00;;;;;;;;5069218;28;9634;-77
2024/02/04 09:53:34;;;;;;;;;1.00;0.33;;;;;;;;5069749;28;9417;-75
2024/02/04 09:56:06;;;;;;;;;1.00;1.00;;;;;;;;5067092;28;9336;-75
2024/02/04 09:58:34;;;;;;;;;0.00;0.00;;;;;;;;5069271;28;9366;-78
2024/02/04 10:01:10;;;;;;;;;1.00;1.00;;;;;;;;5067683;28;9362;-76
2024/02/04 10:03:38;;;;;;;;;0.67;0.67;;;;;;;;5068667;28;9426;-76
2024/02/04 10:06:06;;;;;;;;;1.00;1.00;;;;;;;;5062514;28;9305;-74
2024/02/04 10:08:33;;;;;;;;;1.00;1.00;;;;;;;;5068660;28;9304;-75
2024/02/04 10:11:01;;;;;;;;;1.00;1.00;;;;;;;;5068334;28;9182;-73
2024/02/04 10:13:28;;;;;;;;;0.00;0.00;;;;;;;;5061702;28;9297;-76
2024/02/04 10:15:55;;;;;;;;;0.00;0.00;;;;;;;;5068109;28;9168;-75
2024/02/04 10:18:23;;;;;;;;;0.33;0.33;;;;;;;;5064716;28;9437;-75
2024/02/04 10:20:52;;;;;;;;;0.33;0.33;;;;;;;;5059154;28;9199;-77
2024/02/04 10:23:19;;;;;;;;;0.67;0.00;;;;;;;;5066499;28;9164;-76
2024/02/04 10:25:45;;;;;;;;;0.67;0.67;;;;;;;;5069792;28;9948;-76
2024/02/04 10:28:14;;;;;;;;;0.00;0.00;;;;;;;;5067414;28;9380;-76
2024/02/04 10:30:41;;;;;;;;;0.33;0.33;;;;;;;;5068301;28;9228;-74
2024/02/04 10:33:08;;;;;;;;;1.00;1.00;;;;;;;;5067775;28;9169;-73
2024/02/04 10:35:35;;;;;;;;;0.00;0.00;;;;;;;;5069094;28;9318;-75
2024/02/04 10:38:06;;;;;;;;;0.00;0.00;;;;;;;;5067922;28;9009;-76
2024/02/04 10:40:33;;;;;;;;;2.00;1.00;;;;;;;;5067404;28;9160;-73
2024/02/04 10:43:05;;;;;;;;;0.00;0.00;;;;;;;;5069173;28;9269;-76
2024/02/04 10:45:34;;;;;;;;;0.00;0.00;;;;;;;;5061364;28;9007;-75
2024/02/04 10:48:02;;;;;;;;;0.00;0.00;;;;;;;;5060419;28;9128;-76
2024/02/04 10:50:30;;;;;;;;;2.00;0.67;;;;;;;;5065932;28;9079;-79
2024/02/04 10:53:00;;;;;;;;;0.00;0.00;;;;;;;;5068070;28;9179;-75
2024/02/04 10:55:32;;;;;;;;;2.00;0.00;;;;;;;;5067859;28;8976;-78
2024/02/04 10:58:01;;;;;;;;;0.00;0.00;;;;;;;;5067243;28;9089;-75
2024/02/04 11:00:48;;;;;;;;;0.33;0.33;;;;;;;;5066970;28;9125;-79
2024/02/04 11:03:17;;;;;;;;;0.00;0.00;;;;;;;;5062120;28;9071;-74
2024/02/04 11:05:46;;;;;;;;;1.00;0.00;;;;;;;;5065426;28;9213;-76
2024/02/04 11:08:14;;;;;;;;;0.00;0.00;;;;;;;;5052037;28;9164;-76
2024/02/04 11:10:45;;;;;;;;;1.00;1.00;;;;;;;;5064173;28;9329;-79
2024/02/04 11:13:13;;;;;;;;;1.00;0.00;;;;;;;;5067828;28;9025;-74
2024/02/04 11:15:44;;;;;;;;;0.00;0.00;;;;;;;;5068152;28;9088;-75
2024/02/04 11:18:31;;;;;;;;;0.00;0.00;;;;;;;;5063265;28;9038;-76
2024/02/04 11:21:21;;;;;;;;;0.00;0.00;;;;;;;;5061598;28;9166;-74
2024/02/04 11:23:57;;;;;;;;;1.00;1.00;;;;;;;;5057769;28;9004;-74
2024/02/04 11:26:26;;;;;;;;;0.00;0.00;;;;;;;;5068029;28;9840;-74
2024/02/04 11:28:53;;;;;;;;;0.33;0.33;;;;;;;;5067243;28;8997;-75
2024/02/04 11:31:20;;;;;;;;;0.00;0.00;;;;;;;;5066371;28;9762;-78
2024/02/04 11:33:48;;;;;;;;;1.00;1.00;;;;;;;;5066968;28;9085;-76
2024/02/04 11:36:18;;;;;;;;;0.00;0.00;;;;;;;;5066594;28;9103;-74
2024/02/04 11:38:52;;;;;;;;;0.33;0.33;;;;;;;;5067353;28;9105;-75
2024/02/04 11:41:26;;;;;;;;;0.25;0.25;;;;;;;;5067165;28;9111;-75
2024/02/04 11:43:55;;;;;;;;;0.00;0.00;;;;;;;;5067350;28;8845;-75
2024/02/04 11:46:22;;;;;;;;;0.00;0.00;;;;;;;;5069216;28;8958;-73
2024/02/04 11:48:54;;;;;;;;;3.00;1.00;;;;;;;;5071061;28;8937;-75
2024/02/04 11:51:24;;;;;;;;;1.67;1.67;;;;;;;;5072856;28;9050;-75
2024/02/04 11:53:51;;;;;;;;;1.00;1.00;;;;;;;;5070783;28;9098;-74
2024/02/04 11:56:21;;;;;;;;;2.00;1.67;;;;;;;;5054786;28;9194;-75
2024/02/04 11:58:50;;;;;;;;;1.00;1.00;;;;;;;;5066264;28;9124;-75
2024/02/04 12:01:17;;;;;;;;;1.00;1.00;;;;;;;;5061068;28;8897;-75
2024/02/04 12:03:46;;;;;;;;;1.67;1.67;;;;;;;;5070733;28;9115;-74
2024/02/04 12:06:16;;;;;;;;;0.00;0.00;;;;;;;;5063099;28;8968;-77
2024/02/04 12:08:44;;;;;;;;;1.00;1.00;;;;;;;;5071297;28;8928;-75
2024/02/04 12:11:11;;;;;;;;;1.00;1.00;;;;;;;;5071017;28;9069;-78
2024/02/04 12:13:39;;;;;;;;;1.00;1.00;;;;;;;;5070707;28;9034;-77
2024/02/04 12:16:09;;;;;;;;;1.00;1.00;;;;;;;;5070516;28;9031;-75
2024/02/04 12:18:36;;;;;;;;;2.00;2.00;;;;;;;;5063308;28;8940;-76
2024/02/04 12:21:04;;;;;;;;;1.67;1.00;;;;;;;;5064933;28;9762;-74
2024/02/04 12:23:31;;;;;;;;;2.00;2.00;;;;;;;;5072411;28;9016;-77
2024/02/04 12:25:58;;;;;;;;;3.00;2.00;;;;;;;;5073693;28;9286;-77
2024/02/04 12:28:25;;;;;;;;;2.00;2.00;;;;;;;;5074402;28;9165;-76
2024/02/04 12:30:57;;;;;;;;;1.67;1.67;;;;;;;;5075423;28;8956;-75
2024/02/04 12:33:26;;;;;;;;;1.67;1.67;;;;;;;;5076280;28;9088;-78
2024/02/04 12:35:58;;;;;;;;;1.00;1.00;;;;;;;;5071503;28;9160;-77
2024/02/04 12:38:25;;;;;;;;;1.00;1.00;;;;;;;;5072738;28;9081;-76
2024/02/04 12:40:52;;;;;;;;;2.67;2.67;;;;;;;;5072072;28;9091;-77
2024/02/04 12:43:20;;;;;;;;;3.00;3.00;;;;;;;;5070268;28;9084;-77
2024/02/04 12:45:49;;;;;;;;;2.00;2.00;;;;;;;;5069466;28;9309;-78
2024/02/04 12:48:20;;;;;;;;;2.00;2.00;;;;;;;;5070320;28;9058;-79
2024/02/04 12:50:49;;;;;;;;;1.00;1.00;;;;;;;;5068188;28;9101;-75
2024/02/04 12:53:22;;;;;;;;;1.00;1.00;;;;;;;;5067457;28;9214;-78
2024/02/04 12:55:52;;;;;;;;;2.00;2.00;;;;;;;;5069831;28;9010;-75
2024/02/04 12:58:19;;;;;;;;;3.00;3.00;;;;;;;;5067492;28;9096;-75
2024/02/04 13:00:46;;;;;;;;;1.00;1.00;;;;;;;;5069102;28;9045;-75
2024/02/04 13:03:17;;;;;;;;;2.00;2.00;;;;;;;;5063902;28;9750;-76
2024/02/04 13:05:47;;;;;;;;;2.00;2.00;;;;;;;;5069992;28;9023;-78
2024/02/04 13:08:20;;;;;;;;;2.00;2.00;;;;;;;;5065589;28;9222;-75
2024/02/04 13:10:56;;;;;;;;;1.00;1.00;;;;;;;;5062852;28;9107;-75
2024/02/04 13:13:26;;;;;;;;;1.67;1.67;;;;;;;;5065613;28;9833;-75
2024/02/04 13:15:54;;;;;;;;;1.00;1.00;;;;;;;;5068910;28;9235;-74
2024/02/04 13:18:23;;;;;;;;;1.00;1.00;;;;;;;;5057697;28;9082;-78
2024/02/04 13:20:51;;;;;;;;;1.67;1.67;;;;;;;;5061586;28;9012;-75
2024/02/04 13:23:19;;;;;;;;;2.00;1.00;;;;;;;;5069020;28;9241;-76
2024/02/04 13:25:47;;;;;;;;;0.33;0.33;;;;;;;;5069165;28;8964;-77
2024/02/04 13:28:18;;;;;;;;;0.00;0.00;;;;;;;;5068599;28;9077;-78
2024/02/04 13:30:50;;;;;;;;;1.00;1.00;;;;;;;;5069544;28;9062;-74
2024/02/04 13:33:17;;;;;;;;;2.33;2.00;;;;;;;;5056318;28;9079;-75
2024/02/04 13:35:48;;;;;;;;;2.00;2.00;;;;;;;;5067430;28;9029;-75
2024/02/04 13:38:15;;;;;;;;;1.00;1.00;;;;;;;;5068789;28;9008;-76
2024/02/04 13:40:46;;;;;;;;;2.00;2.00;;;;;;;;5067422;28;9064;-74
2024/02/04 13:43:14;;;;;;;;;0.00;0.00;;;;;;;;5059561;28;9016;-77
2024/02/04 13:45:41;;;;;;;;;0.00;0.00;;;;;;;;5069402;28;9115;-78
2024/02/04 13:48:08;;;;;;;;;0.00;0.00;;;;;;;;5068742;28;8924;-77
2024/02/04 13:50:38;;;;;;;;;1.00;1.00;;;;;;;;5067535;28;8870;-77
2024/02/04 13:53:05;;;;;;;;;0.00;0.00;;;;;;;;5068947;28;8961;-79
2024/02/04 13:55:32;;;;;;;;;0.00;0.00;;;;;;;;5065275;28;8848;-74
2024/02/04 13:58:01;;;;;;;;;2.00;0.00;;;;;;;;5068807;28;8898;-75
2024/02/04 14:00:28;;;;;;;;;0.00;0.00;;;;;;;;5063802;28;8729;-77
2024/02/04 14:02:55;;;;;;;;;0.00;0.00;;;;;;;;5065495;28;8861;-76
2024/02/04 14:05:25;;;;;;;;;0.00;0.00;;;;;;;;5068064;28;8828;-76
2024/02/04 14:07:52;;;;;;;;;0.00;0.00;;;;;;;;5068767;28;9696;-74
2024/02/04 14:10:22;;;;;;;;;0.00;0.00;;;;;;;;5067942;28;8939;-77
2024/02/04 14:12:49;;;;;;;;;0.00;0.00;;;;;;;;5068610;28;8852;-75
2024/02/04 14:15:21;;;;;;;;;0.00;0.00;;;;;;;;5069054;28;8909;-79
2024/02/04 14:17:49;;;;;;;;;0.00;0.00;;;;;;;;5069528;28;8955;-76
2024/02/04 14:20:17;;;;;;;;;0.50;0.50;;;;;;;;5057179;28;8914;-78
2024/02/04 14:22:47;;;;;;;;;0.00;0.00;;;;;;;;5071058;28;8887;-78
2024/02/04 14:25:17;;;;;;;;;0.00;0.00;;;;;;;;5059061;28;8872;-81
2024/02/04 14:27:44;;;;;;;;;0.00;0.00;;;;;;;;5069351;28;8993;-77
2024/02/04 14:30:15;;;;;;;;;0.00;0.00;;;;;;;;5068061;28;8844;-74
2024/02/04 14:32:47;;;;;;;;;0.00;0.00;;;;;;;;5067977;28;8921;-74
2024/02/04 14:35:14;;;;;;;;;0.00;0.00;;;;;;;;5068196;28;9701;-74
2024/02/04 14:37:42;;;;;;;;;0.00;0.00;;;;;;;;5068266;28;9002;-76
2024/02/04 14:40:10;;;;;;;;;0.00;0.00;;;;;;;;5066370;28;8840;-76
2024/02/04 14:42:38;;;;;;;;;0.00;0.00;;;;;;;;5067794;28;8817;-76
2024/02/04 14:45:06;;;;;;;;;0.00;0.00;;;;;;;;5067438;28;8886;-75
2024/02/04 14:47:33;;;;;;;;;0.00;0.00;;;;;;;;5066134;28;8933;-75
2024/02/04 14:50:02;;;;;;;;;0.00;0.00;;;;;;;;5067325;28;8879;-74
2024/02/04 14:52:29;;;;;;;;;0.00;0.00;;;;;;;;5068129;28;8841;-77
2024/02/04 14:54:56;;;;;;;;;0.00;0.00;;;;;;;;5067596;28;8852;-74
2024/02/04 14:57:24;;;;;;;;;0.00;0.00;;;;;;;;5067079;28;8914;-74
2024/02/04 14:59:51;;;;;;;;;0.00;0.00;;;;;;;;5069436;28;8856;-75
2024/02/04 15:02:18;;;;;;;;;0.00;0.00;;;;;;;;5071685;28;8852;-75
2024/02/04 15:04:48;;;;;;;;;0.00;0.00;;;;;;;;5068784;28;8906;-75